Time;durP1;ratioP1;P1;durP2;ratioP2;P2;SDS_P1;SDS_P2;PMS_P1;PMS_P2;Temp;Humidity;BMP_temperature;BMP_pressure;BME280_temperature;BME280_humidity;BME280_pressure;Samples;Min_cycle;Max_cycle;Signal;HPM_P1;HPM_P2
2019/06/17 00:01:08;;;;;;;8.7;8;;;;;;;15.99;87.31836;965.8395;;;;
2019/06/17 00:03:33;;;;;;;8.1;7.3;;;;;;;16.07;85.56348;965.731;;;;
2019/06/17 00:05:58;;;;;;;9;8.1;;;;;;;15.91;85.20508;965.7394;;;;
2019/06/17 00:08:23;;;;;;;8.5;7.7;;;;;;;16.05;84.44043;965.6978;;;;
2019/06/17 00:10:48;;;;;;;8;7.3;;;;;;;16.11;84.62793;965.6358;;;;
2019/06/17 00:13:15;;;;;;;8.8;8;;;;;;;16.08;85.27344;965.6166;;;;
2019/06/17 00:15:47;;;;;;;9.1;8.2;;;;;;;16.12;84.87402;965.5938;;;;
2019/06/17 00:18:12;;;;;;;9.1;8.3;;;;;;;16.01;84.43164;965.5676;;;;
2019/06/17 00:20:37;;;;;;;9.3;8.4;;;;;;;15.95;84.96973;965.5737;;;;
2019/06/17 00:23:02;;;;;;;9.9;9;;;;;;;15.87;86.10742;965.5419;;;;
2019/06/17 00:25:27;;;;;;;9.1;8.3;;;;;;;16.05;84.65234;965.5375;;;;
2019/06/17 00:27:52;;;;;;;10.5;9.5;;;;;;;15.87;85.95605;965.5147;;;;
2019/06/17 00:30:17;;;;;;;8.6;7.9;;;;;;;16.08;84.21484;965.481;;;;
2019/06/17 00:32:43;;;;;;;10.4;9.3;;;;;;;15.92;85.37207;965.4272;;;;
2019/06/17 00:35:09;;;;;;;8.2;7.5;;;;;;;15.9;84.9707;965.4664;;;;
2019/06/17 00:37:35;;;;;;;8.5;7.6;;;;;;;16.01;84.11719;965.4608;;;;
2019/06/17 00:40:00;;;;;;;9.6;8.6;;;;;;;16.02;84.58496;965.4666;;;;
2019/06/17 00:42:25;;;;;;;8.4;7.5;;;;;;;16;84.38574;965.4416;;;;
2019/06/17 00:44:50;;;;;;;8.3;7.2;;;;;;;15.89;85.21387;965.39;;;;
2019/06/17 00:47:17;;;;;;;9.4;8.5;;;;;;;15.67;86.88184;965.3625;;;;
2019/06/17 00:49:42;;;;;;;10.2;8.9;;;;;;;15.48;88.08008;965.4034;;;;
2019/06/17 00:52:08;;;;;;;9.9;9;;;;;;;15.33;87.81445;965.332;;;;
2019/06/17 00:54:34;;;;;;;9.8;8;;;;;;;15.43;86.48633;965.2056;;;;
2019/06/17 00:56:59;;;;;;;10.7;8.1;;;;;;;15.3;86.72754;965.0681;;;;
2019/06/17 00:59:24;;;;;;;8.4;7.6;;;;;;;15.38;86.61523;965.0616;;;;
2019/06/17 01:01:49;;;;;;;7.5;6.8;;;;;;;15.62;85.18262;965.0242;;;;
2019/06/17 01:04:14;;;;;;;7.8;7;;;;;;;15.5;85.88184;965.0496;;;;
2019/06/17 01:06:39;;;;;;;7.4;6.3;;;;;;;15.47;85.80469;965.0345;;;;
2019/06/17 01:09:05;;;;;;;8;7.2;;;;;;;15.35;86.39844;964.9931;;;;
2019/06/17 01:11:29;;;;;;;7;6.4;;;;;;;15.42;86.29688;965.0455;;;;
2019/06/17 01:13:55;;;;;;;8.7;7;;;;;;;15.43;86.125;965.0544;;;;
2019/06/17 01:16:20;;;;;;;7.7;6.8;;;;;;;15.56;85.7207;965.0131;;;;
2019/06/17 01:18:45;;;;;;;8;7.2;;;;;;;15.32;86.26758;965.0792;;;;
2019/06/17 01:21:10;;;;;;;7.7;7;;;;;;;15.27;86.37305;965.0728;;;;
2019/06/17 01:23:35;;;;;;;10;9;;;;;;;15.25;86.16016;965.0627;;;;
2019/06/17 01:26:00;;;;;;;8.3;7.5;;;;;;;15.33;85.41797;965.0044;;;;
2019/06/17 01:28:27;;;;;;;7.7;7;;;;;;;15.25;85.68262;965.043;;;;
2019/06/17 01:30:52;;;;;;;7.4;6.7;;;;;;;15.28;86.11914;965.072;;;;
2019/06/17 01:33:17;;;;;;;9.4;7.5;;;;;;;15.09;86.05859;965.0825;;;;
2019/06/17 01:35:42;;;;;;;7.5;6.1;;;;;;;15.12;86.40137;965.0869;;;;
2019/06/17 01:38:08;;;;;;;8.2;6.1;;;;;;;15.26;85.77734;965.0655;;;;
2019/06/17 01:40:33;;;;;;;8.5;7.6;;;;;;;15.23;86.42188;965.0947;;;;
2019/06/17 01:42:58;;;;;;;7.9;7.1;;;;;;;15.2;85.54492;965.0492;;;;
2019/06/17 01:45:24;;;;;;;9.1;8.2;;;;;;;15.06;86.13477;965.0181;;;;
2019/06/17 01:47:49;;;;;;;8.1;7.4;;;;;;;15.06;85.66895;965.0388;;;;
2019/06/17 01:50:16;;;;;;;8.3;7.5;;;;;;;14.92;86.63965;965.0092;;;;
2019/06/17 01:52:42;;;;;;;7.7;7;;;;;;;14.96;86.72949;965.0295;;;;
2019/06/17 01:55:07;;;;;;;8.4;7.7;;;;;;;14.89;86.27344;965.0728;;;;
2019/06/17 01:57:32;;;;;;;9;8.1;;;;;;;14.96;86.15039;965.1387;;;;
2019/06/17 01:59:57;;;;;;;10;9;;;;;;;14.91;86.55762;965.1077;;;;
2019/06/17 02:02:23;;;;;;;10.9;9.8;;;;;;;14.79;87.19531;965.0358;;;;
2019/06/17 02:04:49;;;;;;;10;8.9;;;;;;;14.93;87.13086;964.9988;;;;
2019/06/17 02:07:24;;;;;;;9.7;8.7;;;;;;;14.92;86.57129;965.0338;;;;
2019/06/17 02:09:45;;;;;;;11.1;8.9;;;;;;;14.9;86.64941;965.0403;;;;
2019/06/17 02:12:04;;;;;;;9.1;8.3;;;;;;;15.05;86.11914;965.0017;;;;
2019/06/17 02:14:31;;;;;;;10.1;8.5;;;;;;;15.22;85.1543;965.1035;;;;
2019/06/17 02:16:56;;;;;;;10.3;9.3;;;;;;;14.99;86.91113;965.0339;;;;
2019/06/17 02:19:21;;;;;;;10.8;9.7;;;;;;;14.83;87.35547;965.0861;;;;
2019/06/17 02:21:47;;;;;;;12.7;11.2;;;;;;;14.66;89.5293;965.0761;;;;
2019/06/17 02:24:12;;;;;;;11;10;;;;;;;14.73;88.07813;965.1728;;;;
2019/06/17 02:26:38;;;;;;;11.9;10.7;;;;;;;14.75;88.37402;965.1445;;;;
2019/06/17 02:29:04;;;;;;;11.1;10;;;;;;;14.96;87.14844;965.1805;;;;
2019/06/17 02:31:29;;;;;;;12.1;10.7;;;;;;;14.87;87.45605;965.1492;;;;
2019/06/17 02:33:54;;;;;;;12.1;10.9;;;;;;;14.84;87.97168;965.0767;;;;
2019/06/17 02:36:19;;;;;;;12;10.8;;;;;;;14.87;87.80469;965.0392;;;;
2019/06/17 02:38:45;;;;;;;13;11.8;;;;;;;14.84;87.81055;965.0676;;;;
2019/06/17 02:41:10;;;;;;;13.2;11.9;;;;;;;14.73;88.54395;965.1286;;;;
2019/06/17 02:43:35;;;;;;;13.7;12.4;;;;;;;14.7;88.26953;965.1848;;;;
2019/06/17 02:46:03;;;;;;;12;10.9;;;;;;;14.59;88.13379;965.272;;;;
2019/06/17 02:48:28;;;;;;;11.5;10.3;;;;;;;14.55;88.31055;965.3619;;;;
2019/06/17 02:50:53;;;;;;;13;11.9;;;;;;;14.63;88.31348;965.3416;;;;
2019/06/17 02:53:18;;;;;;;13.8;12.6;;;;;;;14.6;89.17871;965.3281;;;;
2019/06/17 02:55:43;;;;;;;13.7;12.5;;;;;;;14.46;90.16211;965.348;;;;
2019/06/17 02:58:10;;;;;;;11.7;10.7;;;;;;;14.59;88.74707;965.3917;;;;
2019/06/17 03:00:35;;;;;;;12.8;11.7;;;;;;;14.47;89.16309;965.4341;;;;
2019/06/17 03:03:00;;;;;;;13.7;12.4;;;;;;;14.37;89.75879;965.3829;;;;
2019/06/17 03:05:25;;;;;;;12.9;11.7;;;;;;;14.42;89.14258;965.3837;;;;
2019/06/17 03:07:51;;;;;;;12.5;11.3;;;;;;;14.41;89.90723;965.371;;;;
2019/06/17 03:10:16;;;;;;;12.4;11.3;;;;;;;14.37;89.30566;965.3608;;;;
2019/06/17 03:12:41;;;;;;;13.2;12;;;;;;;14.26;89.87598;965.3198;;;;
2019/06/17 03:15:07;;;;;;;12.9;11.6;;;;;;;14.46;89.25586;965.3727;;;;
2019/06/17 03:17:32;;;;;;;13.1;11.9;;;;;;;14.49;89.51758;965.3795;;;;
2019/06/17 03:19:57;;;;;;;14.2;12.8;;;;;;;14.35;90.34668;965.3628;;;;
2019/06/17 03:22:28;;;;;;;14.2;12.8;;;;;;;14.21;90.80664;965.3332;;;;
2019/06/17 03:24:47;;;;;;;13.8;12.5;;;;;;;14.31;90.09375;965.3328;;;;
2019/06/17 03:27:13;;;;;;;14.5;13.1;;;;;;;14.34;89.59082;965.325;;;;
2019/06/17 03:29:38;;;;;;;15.2;13.9;;;;;;;14.32;90.02832;965.3304;;;;
2019/06/17 03:32:05;;;;;;;14.7;13.4;;;;;;;14.44;89.80762;965.3714;;;;
2019/06/17 03:34:31;;;;;;;14.7;13.4;;;;;;;14.46;89.74414;965.3685;;;;
2019/06/17 03:36:56;;;;;;;14.2;12.9;;;;;;;14.51;90.02051;965.3455;;;;
2019/06/17 03:39:21;;;;;;;14.9;13.6;;;;;;;14.6;88.95801;965.3027;;;;
2019/06/17 03:41:46;;;;;;;13.6;12.5;;;;;;;14.66;88.83008;965.3006;;;;
2019/06/17 03:44:13;;;;;;;16.1;14.5;;;;;;;14.58;89.19727;965.3572;;;;
2019/06/17 03:46:38;;;;;;;15.9;14.5;;;;;;;14.49;90.38867;965.3377;;;;
2019/06/17 03:49:06;;;;;;;16.4;14.8;;;;;;;14.54;89.75879;965.3196;;;;
2019/06/17 03:51:31;;;;;;;15.2;13.9;;;;;;;14.72;89.45996;965.2656;;;;
2019/06/17 03:53:56;;;;;;;15;13.7;;;;;;;14.65;88.60938;965.2342;;;;
2019/06/17 03:56:21;;;;;;;16.5;14.9;;;;;;;14.64;88.82813;965.2703;;;;
2019/06/17 03:58:46;;;;;;;14.6;13.2;;;;;;;14.94;87.30762;965.2853;;;;
2019/06/17 04:02:27;;;;;;;15.7;14.2;;;;;;;14.67;88.83496;965.3083;;;;
2019/06/17 04:04:52;;;;;;;15;13.6;;;;;;;14.63;88.40625;965.2719;;;;
2019/06/17 04:07:17;;;;;;;14;12.8;;;;;;;14.69;87.9541;965.3383;;;;
2019/06/17 04:09:42;;;;;;;12.7;11.6;;;;;;;14.59;88.36426;965.322;;;;
2019/06/17 04:12:07;;;;;;;13;11.8;;;;;;;14.67;87.70703;965.2952;;;;
2019/06/17 04:14:32;;;;;;;12.3;11.3;;;;;;;14.63;87.81348;965.3408;;;;
2019/06/17 04:16:57;;;;;;;14.5;13.2;;;;;;;14.49;88.50684;965.3049;;;;
2019/06/17 04:19:23;;;;;;;14.1;12.8;;;;;;;14.46;89.03516;965.3152;;;;
2019/06/17 04:21:48;;;;;;;13.9;12.7;;;;;;;14.34;89.05664;965.3373;;;;
2019/06/17 04:24:17;;;;;;;16.2;14.8;;;;;;;14.2;90.59375;965.3583;;;;
2019/06/17 04:26:42;;;;;;;15.9;14.5;;;;;;;14.26;90.66504;965.3394;;;;
2019/06/17 04:29:07;;;;;;;16.7;15.1;;;;;;;14.39;90.1123;965.3862;;;;
2019/06/17 04:31:32;;;;;;;17.8;16.1;;;;;;;14.33;91.21191;965.4199;;;;
2019/06/17 04:33:58;;;;;;;16.9;15.3;;;;;;;14.3;90.55859;965.4083;;;;
2019/06/17 04:36:23;;;;;;;16.1;14.6;;;;;;;14.43;89.56055;965.4419;;;;
2019/06/17 04:38:48;;;;;;;16.7;15.2;;;;;;;14.41;90.93848;965.4464;;;;
2019/06/17 04:41:14;;;;;;;15.2;13.9;;;;;;;14.54;89.07324;965.4356;;;;
2019/06/17 04:43:39;;;;;;;16.3;14.9;;;;;;;14.43;89.71289;965.4345;;;;
2019/06/17 04:46:05;;;;;;;17.5;16;;;;;;;14.52;89.42969;965.4361;;;;
2019/06/17 04:48:30;;;;;;;23.5;21.3;;;;;;;14.39;90.39063;965.3666;;;;
2019/06/17 04:50:55;;;;;;;21.4;19.5;;;;;;;14.46;90.13672;965.348;;;;
2019/06/17 04:53:20;;;;;;;22.8;20.7;;;;;;;14.49;90.89941;965.3722;;;;
2019/06/17 04:55:46;;;;;;;22.9;20.6;;;;;;;14.48;90.51367;965.3631;;;;
2019/06/17 04:58:11;;;;;;;21.5;19.4;;;;;;;14.47;90.60352;965.3488;;;;
2019/06/17 05:00:36;;;;;;;20.4;18.6;;;;;;;14.6;90.45703;965.3535;;;;
2019/06/17 05:03:02;;;;;;;19.8;17.9;;;;;;;14.64;90.60547;965.3687;;;;
2019/06/17 05:05:27;;;;;;;18.8;17;;;;;;;14.62;90.36816;965.2896;;;;
2019/06/17 05:07:53;;;;;;;18.8;17;;;;;;;14.58;90.52148;965.2859;;;;
2019/06/17 05:10:18;;;;;;;18.3;16.6;;;;;;;14.68;90.35742;965.2863;;;;
2019/06/17 05:12:43;;;;;;;18.2;16.5;;;;;;;14.71;90.79297;965.3358;;;;
2019/06/17 05:15:08;;;;;;;17.7;16.2;;;;;;;14.77;89.98047;965.3013;;;;
2019/06/17 05:17:34;;;;;;;16.6;15.1;;;;;;;14.95;88.30859;965.2787;;;;
2019/06/17 05:19:59;;;;;;;18.7;17;;;;;;;14.79;89.46387;965.3123;;;;
2019/06/17 05:22:24;;;;;;;17.7;16.2;;;;;;;14.88;89.88867;965.3027;;;;
2019/06/17 05:24:49;;;;;;;18.2;16.5;;;;;;;14.86;89.16211;965.2711;;;;
2019/06/17 05:27:14;;;;;;;18;16.1;;;;;;;15;89.36621;965.3205;;;;
2019/06/17 05:29:39;;;;;;;18.4;16.6;;;;;;;15.04;89.83887;965.3002;;;;
2019/06/17 05:32:09;;;;;;;17.1;15.5;;;;;;;15.21;89.11719;965.3087;;;;
2019/06/17 05:34:29;;;;;;;18.5;16.9;;;;;;;15.21;88.62695;965.2866;;;;
2019/06/17 05:36:55;;;;;;;18.7;16.7;;;;;;;15.31;88.3584;965.2381;;;;
2019/06/17 05:39:20;;;;;;;17.7;16.2;;;;;;;15.43;87.40527;965.2402;;;;
2019/06/17 05:41:45;;;;;;;16.9;15.3;;;;;;;15.59;87.8916;965.1752;;;;
2019/06/17 05:44:12;;;;;;;17.4;15.9;;;;;;;15.57;86.28027;965.2136;;;;
2019/06/17 05:46:37;;;;;;;16.6;15;;;;;;;15.72;86.53125;965.1535;;;;
2019/06/17 05:49:03;;;;;;;16.5;15;;;;;;;15.87;86.22363;965.1555;;;;
2019/06/17 05:51:32;;;;;;;15.2;13.8;;;;;;;15.9;85.11035;965.14;;;;
2019/06/17 05:53:57;;;;;;;14.6;13.2;;;;;;;15.91;85.76465;965.14;;;;
2019/06/17 05:56:22;;;;;;;14.6;13.3;;;;;;;16.06;85.66602;965.137;;;;
2019/06/17 05:58:48;;;;;;;14.1;12.8;;;;;;;16.15;84.50781;965.1149;;;;
2019/06/17 06:01:13;;;;;;;12.7;11.5;;;;;;;16.34;83.90137;965.1035;;;;
2019/06/17 06:03:38;;;;;;;11.9;10.8;;;;;;;16.44;84.22363;965.0842;;;;
2019/06/17 06:06:03;;;;;;;11.4;10.4;;;;;;;16.52;83.65723;965.0887;;;;
2019/06/17 06:10:53;;;;;;;11.6;10.5;;;;;;;16.79;82.70313;965.1149;;;;
2019/06/17 06:13:18;;;;;;;11.8;10.7;;;;;;;16.72;82.57227;965.1183;;;;
2019/06/17 06:15:44;;;;;;;11.4;10.4;;;;;;;16.69;83.81641;965.1091;;;;
2019/06/17 06:18:09;;;;;;;11.4;10.2;;;;;;;16.88;82.03223;965.0798;;;;
2019/06/17 06:20:34;;;;;;;10.3;9.4;;;;;;;17.01;81.99707;965.0892;;;;
2019/06/17 06:22:59;;;;;;;10.1;9.1;;;;;;;17.15;80.64551;965.1276;;;;
2019/06/17 06:25:25;;;;;;;9.7;8.8;;;;;;;17.28;80.63379;965.1615;;;;
2019/06/17 06:27:51;;;;;;;10.7;9.8;;;;;;;17.41;79.34863;965.1232;;;;
2019/06/17 06:30:16;;;;;;;10.9;9.1;;;;;;;17.39;79.71777;965.1461;;;;
2019/06/17 06:32:41;;;;;;;10.7;9.6;;;;;;;17.41;79.88672;965.1347;;;;
2019/06/17 06:35:06;;;;;;;9.8;8.9;;;;;;;17.41;79.58203;965.1213;;;;
2019/06/17 06:37:31;;;;;;;9.5;8.7;;;;;;;17.43;80.49609;965.0803;;;;
2019/06/17 06:39:56;;;;;;;9.8;8.8;;;;;;;17.64;79.36719;965.1001;;;;
2019/06/17 06:42:21;;;;;;;9.4;8.4;;;;;;;17.77;79.60059;965.0962;;;;
2019/06/17 06:44:47;;;;;;;8.9;8.1;;;;;;;17.97;78.03223;965.0352;;;;
2019/06/17 06:47:13;;;;;;;9.7;8.8;;;;;;;17.9;79.99902;965.0667;;;;
2019/06/17 06:49:38;;;;;;;11.4;10.3;;;;;;;17.85;79.60352;965.0493;;;;
2019/06/17 06:52:04;;;;;;;9.9;9;;;;;;;17.97;79.28516;965.0047;;;;
2019/06/17 06:54:29;;;;;;;12.4;11.2;;;;;;;17.82;79.31738;965.0114;;;;
2019/06/17 06:56:55;;;;;;;11.8;10.7;;;;;;;18.09;79.51855;964.974;;;;
2019/06/17 06:59:20;;;;;;;13.4;12;;;;;;;17.89;80.47559;964.9728;;;;
2019/06/17 07:01:45;;;;;;;12.5;10.1;;;;;;;17.98;80.62305;964.9966;;;;
2019/06/17 07:04:10;;;;;;;12;10.9;;;;;;;17.84;79.69531;965.0148;;;;
2019/06/17 07:06:35;;;;;;;11.3;10.3;;;;;;;17.93;79.41895;964.9627;;;;
2019/06/17 07:09:00;;;;;;;10.2;9.2;;;;;;;18.21;78.05078;964.9474;;;;
2019/06/17 07:11:25;;;;;;;9.8;8.9;;;;;;;18.25;79.1709;964.9211;;;;
2019/06/17 07:13:50;;;;;;;11;9.9;;;;;;;18.29;80.03418;964.873;;;;
2019/06/17 07:16:16;;;;;;;10.6;9.6;;;;;;;18.23;77.10645;964.8419;;;;
2019/06/17 07:18:41;;;;;;;11.4;9.5;;;;;;;18.23;77.66895;964.8318;;;;
2019/06/17 07:21:08;;;;;;;10.7;9.6;;;;;;;18.2;77.20703;964.8261;;;;
2019/06/17 07:23:33;;;;;;;9.7;8.8;;;;;;;18.25;77.55469;964.8039;;;;
2019/06/17 07:25:58;;;;;;;10.5;8.9;;;;;;;18.3;78.72363;964.7771;;;;
2019/06/17 07:28:23;;;;;;;9.6;8.7;;;;;;;18.38;77.69531;964.7053;;;;
2019/06/17 07:30:48;;;;;;;9.3;8.3;;;;;;;18.47;76.90234;964.7106;;;;
2019/06/17 07:33:15;;;;;;;9.6;8.8;;;;;;;18.67;76.4209;964.6828;;;;
2019/06/17 07:35:40;;;;;;;8.7;7.9;;;;;;;18.55;77.0791;964.675;;;;
2019/06/17 07:38:08;;;;;;;8.7;7.6;;;;;;;18.71;77.51953;964.6849;;;;
2019/06/17 07:40:33;;;;;;;8.5;7.6;;;;;;;18.84;76.12207;964.6483;;;;
2019/06/17 07:42:58;;;;;;;8.6;7.8;;;;;;;19.06;75.17383;964.6572;;;;
2019/06/17 07:45:23;;;;;;;7.6;6.9;;;;;;;19.09;74.72168;964.6239;;;;
2019/06/17 07:47:48;;;;;;;7.3;6.6;;;;;;;19.45;72.61035;964.6322;;;;
2019/06/17 07:50:13;;;;;;;7.2;6.5;;;;;;;19.31;72.6582;964.5322;;;;
2019/06/17 07:52:38;;;;;;;6.5;5.9;;;;;;;19.42;73.19238;964.524;;;;
2019/06/17 07:55:03;;;;;;;6.2;5.6;;;;;;;19.54;72.04883;964.4959;;;;
2019/06/17 07:57:29;;;;;;;6;5.4;;;;;;;19.61;71.48535;964.4821;;;;
2019/06/17 08:00:06;;;;;;;5.2;4.7;;;;;;;19.63;71.0293;964.4753;;;;
2019/06/17 08:02:19;;;;;;;6.9;5.8;;;;;;;19.4;71.0625;964.5142;;;;
2019/06/17 08:04:44;;;;;;;6;5.5;;;;;;;19.48;71.8877;964.507;;;;
2019/06/17 08:07:27;;;;;;;6.3;5.7;;;;;;;19.41;71.45313;964.4586;;;;
2019/06/17 08:09:34;;;;;;;6.4;5.6;;;;;;;19.41;72.02734;964.4504;;;;
2019/06/17 08:11:59;;;;;;;6.7;6;;;;;;;19.24;72.83398;964.4303;;;;
2019/06/17 08:14:24;;;;;;;7;6;;;;;;;19.28;72.33691;964.4398;;;;
2019/06/17 08:16:49;;;;;;;6.7;6.1;;;;;;;19.41;73.27148;964.3909;;;;
2019/06/17 08:19:14;;;;;;;6;5.4;;;;;;;19.6;71.44824;964.397;;;;
2019/06/17 08:21:39;;;;;;;5.9;5.3;;;;;;;19.51;70.7168;964.4175;;;;
2019/06/17 08:24:04;;;;;;;7.5;5.5;;;;;;;19.5;70.99805;964.3819;;;;
2019/06/17 08:26:29;;;;;;;5.9;5.4;;;;;;;19.49;72.64063;964.3746;;;;
2019/06/17 08:28:55;;;;;;;6.1;5;;;;;;;19.64;70.54883;964.3552;;;;
2019/06/17 08:31:20;;;;;;;6;5.4;;;;;;;19.79;71.1748;964.2441;;;;
2019/06/17 08:33:45;;;;;;;6.9;4.3;;;;;;;19.95;71.39941;964.2383;;;;
2019/06/17 08:36:12;;;;;;;5.6;4.7;;;;;;;19.94;70.39844;964.2311;;;;
2019/06/17 08:38:38;;;;;;;5.6;5.1;;;;;;;20.04;69.94434;964.202;;;;
2019/06/17 08:41:03;;;;;;;5.1;4.4;;;;;;;20.18;67.86035;964.178;;;;
2019/06/17 08:43:28;;;;;;;5.7;4.3;;;;;;;20.25;66.94141;964.136;;;;
2019/06/17 08:45:53;;;;;;;4;3.6;;;;;;;20.21;66.8877;964.1312;;;;
2019/06/17 08:48:18;;;;;;;5.8;5.3;;;;;;;20.07;68.6084;964.1643;;;;
2019/06/17 08:50:43;;;;;;;5.2;4.4;;;;;;;19.99;68.08887;964.1819;;;;
2019/06/17 08:53:08;;;;;;;5.8;5.3;;;;;;;19.87;68.92871;964.1483;;;;
2019/06/17 08:55:33;;;;;;;5.9;4.6;;;;;;;20.09;70.56348;964.1443;;;;
2019/06/17 08:57:59;;;;;;;5.3;4.8;;;;;;;20.04;68.2627;964.1102;;;;
2019/06/17 09:00:24;;;;;;;5.9;5.3;;;;;;;20.03;67.63672;964.1225;;;;
2019/06/17 09:02:49;;;;;;;7.8;5.4;;;;;;;19.81;68.63867;964.081;;;;
2019/06/17 09:05:14;;;;;;;6.1;4.9;;;;;;;19.87;68.49414;964.0681;;;;
2019/06/17 09:07:39;;;;;;;6.3;5.5;;;;;;;19.9;69.65039;964.1175;;;;
2019/06/17 09:10:04;;;;;;;5.1;4.7;;;;;;;20.15;70.44238;964.0831;;;;
2019/06/17 09:12:29;;;;;;;5.5;4.5;;;;;;;20.1;67.91797;964.0747;;;;
2019/06/17 09:14:54;;;;;;;4.7;4.3;;;;;;;20.11;68.89453;964.0226;;;;
2019/06/17 09:17:19;;;;;;;5.7;4;;;;;;;20.31;67.03223;964.0276;;;;
2019/06/17 09:19:44;;;;;;;4.6;4.2;;;;;;;20.42;67.0957;964.0453;;;;
2019/06/17 09:22:09;;;;;;;4.8;4.4;;;;;;;20.33;66.85938;964.0181;;;;
2019/06/17 09:24:34;;;;;;;4.2;3.9;;;;;;;20.41;68.06055;964.0345;;;;
2019/06/17 09:27:00;;;;;;;4.4;4;;;;;;;20.47;66.65625;963.9238;;;;
2019/06/17 09:29:26;;;;;;;6.4;3.9;;;;;;;20.59;66.14551;963.9017;;;;
2019/06/17 09:31:52;;;;;;;4.2;3.6;;;;;;;20.62;65.64258;963.9378;;;;
2019/06/17 09:34:17;;;;;;;3.4;3.1;;;;;;;20.69;66.14844;963.9434;;;;
2019/06/17 09:36:43;;;;;;;3.8;3.2;;;;;;;20.83;66.21484;963.896;;;;
2019/06/17 09:39:08;;;;;;;4.8;3.7;;;;;;;20.95;63.74707;963.8753;;;;
2019/06/17 09:41:33;;;;;;;4.1;3;;;;;;;21.05;61.77051;963.8835;;;;
2019/06/17 09:43:59;;;;;;;3.3;3;;;;;;;21.17;62.73047;963.856;;;;
2019/06/17 09:46:24;;;;;;;3.2;2.9;;;;;;;21.3;62.10938;963.8849;;;;
2019/06/17 09:48:52;;;;;;;2.6;2.4;;;;;;;21.5;61.52637;963.7714;;;;
2019/06/17 09:51:17;;;;;;;2.6;2.4;;;;;;;21.63;61.17676;963.8098;;;;
2019/06/17 09:53:42;;;;;;;4.1;3;;;;;;;21.76;60.61621;963.7696;;;;
2019/06/17 09:56:07;;;;;;;3.6;3;;;;;;;21.81;61.19043;963.8407;;;;
2019/06/17 09:58:32;;;;;;;4;2.7;;;;;;;21.56;61.12109;963.7645;;;;
2019/06/17 10:00:57;;;;;;;3.6;2.6;;;;;;;21.51;60.24023;963.7266;;;;
2019/06/17 10:03:22;;;;;;;4.7;2.6;;;;;;;21.71;59.52441;963.7047;;;;
2019/06/17 10:05:48;;;;;;;3.4;2.8;;;;;;;21.81;60.19824;963.7603;;;;
2019/06/17 10:08:13;;;;;;;2.9;2.3;;;;;;;21.83;59.89453;963.7315;;;;
2019/06/17 10:10:38;;;;;;;3.6;2.5;;;;;;;21.9;59.31348;963.7445;;;;
2019/06/17 10:13:03;;;;;;;3.2;2.6;;;;;;;21.85;59.96777;963.7328;;;;
2019/06/17 10:15:29;;;;;;;4.6;2.9;;;;;;;21.84;59.74219;963.6965;;;;
2019/06/17 10:17:54;;;;;;;2.5;2.3;;;;;;;22.07;59.30078;963.7062;;;;
2019/06/17 10:20:20;;;;;;;2.5;2.3;;;;;;;22.06;60.46777;963.6693;;;;
2019/06/17 10:22:46;;;;;;;4;2.6;;;;;;;21.96;60.34766;963.6281;;;;
2019/06/17 10:25:14;;;;;;;3.1;2.3;;;;;;;21.97;57.77539;963.6227;;;;
2019/06/17 10:27:39;;;;;;;2.3;2.1;;;;;;;22.03;57.4873;963.5686;;;;
2019/06/17 10:30:04;;;;;;;2.4;2;;;;;;;22.08;57.77734;963.56;;;;
2019/06/17 10:32:29;;;;;;;2.3;2.1;;;;;;;22.34;56.33398;963.5765;;;;
2019/06/17 10:34:55;;;;;;;3.7;2.1;;;;;;;22.65;56.37305;963.5858;;;;
2019/06/17 10:37:21;;;;;;;3.8;2.4;;;;;;;22.7;56.43848;963.5482;;;;
2019/06/17 10:39:46;;;;;;;2.1;1.9;;;;;;;22.66;57.33203;963.584;;;;
2019/06/17 10:42:11;;;;;;;2.5;2.1;;;;;;;22.65;56.44434;963.5311;;;;
2019/06/17 10:44:37;;;;;;;2;1.8;;;;;;;22.56;56.58691;963.5446;;;;
2019/06/17 10:47:02;;;;;;;2.4;2.2;;;;;;;22.62;57.02051;963.5508;;;;
2019/06/17 10:49:27;;;;;;;2.5;2.1;;;;;;;22.33;58.48438;963.503;;;;
2019/06/17 10:51:54;;;;;;;2.7;1.9;;;;;;;22.21;56.70605;963.4913;;;;
2019/06/17 10:54:19;;;;;;;2.5;1.9;;;;;;;22.16;57.39844;963.4892;;;;
2019/06/17 10:56:47;;;;;;;3.3;2.2;;;;;;;22.15;57.13672;963.4855;;;;
2019/06/17 10:59:12;;;;;;;3.8;2.2;;;;;;;22.17;56.85547;963.405;;;;
2019/06/17 11:01:37;;;;;;;2.6;1.8;;;;;;;22.42;56.94531;963.4073;;;;
2019/06/17 11:04:02;;;;;;;2.3;1.9;;;;;;;22.63;56.01465;963.3544;;;;
2019/06/17 11:06:27;;;;;;;1.7;1.6;;;;;;;22.81;53.86035;963.3762;;;;
2019/06/17 11:08:53;;;;;;;4.8;1.7;;;;;;;22.91;54.29883;963.3162;;;;
2019/06/17 11:11:18;;;;;;;3.5;1.9;;;;;;;22.96;52.58789;963.2508;;;;
2019/06/17 11:13:44;;;;;;;2.4;1.6;;;;;;;22.9;55.94238;963.3683;;;;
2019/06/17 11:16:10;;;;;;;2;1.5;;;;;;;22.85;52.07715;963.3045;;;;
2019/06/17 11:18:35;;;;;;;1.7;1.4;;;;;;;22.95;53.14453;963.2542;;;;
2019/06/17 11:21:01;;;;;;;1.7;1.5;;;;;;;23.12;52.79688;963.1994;;;;
2019/06/17 11:23:28;;;;;;;2.3;1.6;;;;;;;23.27;51.62988;963.1691;;;;
2019/06/17 11:25:53;;;;;;;2.7;1.6;;;;;;;23.39;51.99902;963.126;;;;
2019/06/17 11:28:18;;;;;;;2;1.6;;;;;;;23.57;52.44629;963.1841;;;;
2019/06/17 11:30:43;;;;;;;4.1;1.7;;;;;;;23.53;56.30762;963.1973;;;;
2019/06/17 11:33:08;;;;;;;3.5;1.7;;;;;;;23.5;51.97559;963.1676;;;;
2019/06/17 11:35:34;;;;;;;3.7;1.6;;;;;;;23.81;51.09961;963.1961;;;;
2019/06/17 11:37:59;;;;;;;3.4;1.8;;;;;;;23.41;52.81836;963.1797;;;;
2019/06/17 11:40:24;;;;;;;2.4;1.7;;;;;;;23.39;52.76953;963.147;;;;
2019/06/17 11:42:51;;;;;;;2.5;1.7;;;;;;;23.42;53.38867;963.1013;;;;
2019/06/17 11:45:17;;;;;;;3.3;1.6;;;;;;;23.45;53.28613;963.0697;;;;
2019/06/17 11:47:43;;;;;;;2.1;1.8;;;;;;;23.13;53.2959;963.1509;;;;
2019/06/17 11:50:08;;;;;;;5.2;1.9;;;;;;;23.14;52.64453;963.155;;;;
2019/06/17 11:52:34;;;;;;;2.4;1.7;;;;;;;23.22;53.50781;963.0939;;;;
2019/06/17 11:54:59;;;;;;;3.6;1.6;;;;;;;23.28;52.41211;963.0676;;;;
2019/06/17 11:57:26;;;;;;;3;1.7;;;;;;;23.54;54.74316;963.0466;;;;
2019/06/17 11:59:51;;;;;;;2.7;1.7;;;;;;;23.78;52.61328;963.0528;;;;
2019/06/17 12:02:17;;;;;;;1.8;1.5;;;;;;;23.93;51.51563;963.0272;;;;
2019/06/17 12:04:42;;;;;;;3.3;1.8;;;;;;;23.97;50.46484;963.1085;;;;
2019/06/17 12:07:07;;;;;;;3.8;1.7;;;;;;;24.19;49.6582;963.0306;;;;
2019/06/17 12:09:32;;;;;;;3.8;1.6;;;;;;;24.11;50.61035;963.0228;;;;
2019/06/17 12:11:57;;;;;;;2.1;1.7;;;;;;;24.41;48.625;963.0125;;;;
2019/06/17 12:14:24;;;;;;;4.5;1.7;;;;;;;24.11;49.45898;963.0294;;;;
2019/06/17 12:16:49;;;;;;;2.7;1.8;;;;;;;24.04;49.80762;962.9523;;;;
2019/06/17 12:19:16;;;;;;;3.1;1.6;;;;;;;23.94;50.50977;962.9961;;;;
2019/06/17 12:21:41;;;;;;;1.7;1.5;;;;;;;23.81;48.88086;962.9903;;;;
2019/06/17 12:24:06;;;;;;;2.8;1.6;;;;;;;24.1;48.12988;963.0129;;;;
2019/06/17 12:26:31;;;;;;;2;1.6;;;;;;;24.1;49.51855;962.9547;;;;
2019/06/17 12:28:58;;;;;;;3.4;1.7;;;;;;;23.95;52.31348;962.955;;;;
2019/06/17 12:31:23;;;;;;;3.1;1.6;;;;;;;23.92;50.01953;962.9509;;;;
2019/06/17 12:33:56;;;;;;;1.9;1.7;;;;;;;23.91;51.0625;962.9337;;;;
2019/06/17 12:36:21;;;;;;;2;1.7;;;;;;;24.31;49.99316;962.9335;;;;
2019/06/17 12:38:47;;;;;;;3.2;1.9;;;;;;;24.17;49.47852;962.928;;;;
2019/06/17 12:41:14;;;;;;;4.7;1.9;;;;;;;23.93;51.1123;962.8962;;;;
2019/06/17 12:43:39;;;;;;;2.6;1.9;;;;;;;24.35;49.61719;962.9217;;;;
2019/06/17 12:46:07;;;;;;;3.4;1.8;;;;;;;24.52;48.46094;962.8625;;;;
2019/06/17 12:48:35;;;;;;;3.2;1.5;;;;;;;24.98;48.14063;962.8824;;;;
2019/06/17 12:51:03;;;;;;;2;1.5;;;;;;;24.75;48.80566;962.9241;;;;
2019/06/17 12:53:28;;;;;;;2.9;1.7;;;;;;;24.49;49.32422;962.8344;;;;
2019/06/17 12:55:53;;;;;;;3.2;1.7;;;;;;;24.37;49.25195;962.8845;;;;
2019/06/17 12:58:19;;;;;;;3.6;1.6;;;;;;;24.07;48.95605;962.7935;;;;
2019/06/17 13:00:44;;;;;;;3.1;1.8;;;;;;;23.76;49.86035;962.7247;;;;
2019/06/17 13:03:12;;;;;;;2;1.7;;;;;;;23.93;50.98242;962.728;;;;
2019/06/17 13:05:37;;;;;;;2.8;1.7;;;;;;;24.26;49.10938;962.742;;;;
2019/06/17 13:08:02;;;;;;;2.1;1.5;;;;;;;24.45;49.42676;962.6655;;;;
2019/06/17 13:10:28;;;;;;;2.3;1.6;;;;;;;25;46.41895;962.6321;;;;
2019/06/17 13:12:53;;;;;;;2.7;1.6;;;;;;;25.36;48.68164;962.5739;;;;
2019/06/17 13:15:19;;;;;;;2.1;1.6;;;;;;;25.47;47.13379;962.6002;;;;
2019/06/17 13:17:44;;;;;;;1.8;1.4;;;;;;;25.55;46.7959;962.5237;;;;
2019/06/17 13:20:09;;;;;;;2.3;1.8;;;;;;;24.9;49.2373;962.5925;;;;
2019/06/17 13:22:34;;;;;;;3.6;1.6;;;;;;;24.38;48.6582;962.5908;;;;
2019/06/17 13:24:59;;;;;;;1.6;1.5;;;;;;;24.04;51.56445;962.61;;;;
2019/06/17 13:27:24;;;;;;;3.2;1.6;;;;;;;24.37;49.91699;962.5428;;;;
2019/06/17 13:29:49;;;;;;;2.2;1.5;;;;;;;24.9;48.47754;962.5305;;;;
2019/06/17 13:32:14;;;;;;;2.6;1.7;;;;;;;24.73;49.17285;962.4742;;;;
2019/06/17 13:34:39;;;;;;;2.6;1.7;;;;;;;24.37;53.4082;962.4863;;;;
2019/06/17 13:37:05;;;;;;;2.7;1.5;;;;;;;24.08;49.88379;962.4172;;;;
2019/06/17 13:39:30;;;;;;;3.7;1.5;;;;;;;24.11;49.55566;962.4749;;;;
2019/06/17 13:41:55;;;;;;;2;1.4;;;;;;;23.92;49.30859;962.4278;;;;
2019/06/17 13:44:22;;;;;;;2.6;1.4;;;;;;;24.38;50.09473;962.4358;;;;
2019/06/17 13:46:47;;;;;;;3.1;1.7;;;;;;;24.78;48.46387;962.3588;;;;
2019/06/17 13:49:12;;;;;;;2.2;1.5;;;;;;;25.16;48.90918;962.3013;;;;
2019/06/17 13:51:37;;;;;;;2.5;1.4;;;;;;;25.43;47.7373;962.3596;;;;
2019/06/17 13:54:02;;;;;;;3.6;1.6;;;;;;;25.25;47.40918;962.3148;;;;
2019/06/17 13:56:28;;;;;;;3.1;1.6;;;;;;;24.93;49.3252;962.2242;;;;
2019/06/17 13:58:54;;;;;;;2.5;1.6;;;;;;;24.57;49.72559;962.2792;;;;
2019/06/17 14:01:27;;;;;;;2;1.6;;;;;;;24.63;49.94629;962.3315;;;;
2019/06/17 14:03:53;;;;;;;3.3;1.8;;;;;;;24.19;51.84277;962.2981;;;;
2019/06/17 14:06:19;;;;;;;2.5;1.5;;;;;;;24.01;50.26855;962.2967;;;;
2019/06/17 14:08:43;;;;;;;2.7;1.7;;;;;;;24.11;51.86914;962.1841;;;;
2019/06/17 14:11:08;;;;;;;2.5;1.6;;;;;;;24.43;50.10059;962.1503;;;;